This is the latest recevied weather packets stored in our database for station/object EA5GTE-12. If no packets are shown the sender has not sent any weather packets the latest 10 day(s).
| Time | Temp. | Humidity | Pressure | Rain* | Wind** | Luminosity | Snow |
|---|---|---|---|---|---|---|---|
| 1778024249 | 8.89° C | 83% | 935.5 hPa | - | - | - | - |
| 1778023349 | 7.78° C | 98% | 935.5 hPa | - | - | - | - |
| 1778022449 | 8.33° C | 97% | 935.5 hPa | - | - | - | - |
| 1778021549 | 8.33° C | 89% | 935.3 hPa | - | - | - | - |
| 1778020648 | 8.89° C | 81% | 935.3 hPa | - | - | - | - |
| 1778019748 | 8.89° C | 78% | 935.4 hPa | - | - | - | - |
| 1778018848 | 8.89° C | 82% | 935.4 hPa | - | - | - | - |
| 1778017948 | 10° C | 68% | 935.3 hPa | - | - | - | - |
| 1778017048 | 10.56° C | 66% | 935.2 hPa | - | - | - | - |
| 1778016148 | 11.11° C | 60% | 935 hPa | - | - | - | - |
| 1778015248 | 11.67° C | 56% | 935 hPa | - | - | - | - |
| 1778014347 | 11.11° C | 60% | 935 hPa | - | - | - | - |
| 1778013447 | 11.11° C | 60% | 935 hPa | - | - | - | - |
| 1778012547 | 11.67° C | 52% | 935 hPa | - | - | - | - |
| 1778011647 | 11.11° C | 61% | 934.7 hPa | - | - | - | - |
| 1778010746 | 11.67° C | 52% | 934.5 hPa | - | - | - | - |
| 1778009846 | 12.78° C | 45% | 934.3 hPa | - | - | - | - |
| 1778008946 | 13.33° C | 43% | 934.1 hPa | - | - | - | - |
| 1778007147 | 15° C | 38% | 933.7 hPa | - | - | - | - |
| 1778006247 | 17.22° C | 32% | 933.6 hPa | - | - | - | - |
| 1778005347 | 18.89° C | 29% | 933.4 hPa | - | - | - | - |
| 1778004447 | 18.89° C | 30% | 933.3 hPa | - | - | - | - |
| 1778003547 | 17.78° C | 30% | 933.1 hPa | - | - | - | - |
| 1778002739 | 17.22° C | 31% | 933.1 hPa | - | - | - | - |
| 1778002647 | 17.22° C | 31% | 933.1 hPa | - | - | - | - |
* Rain since midnight (hover to see other rain measurements)
** Current wind speed in m/s (hover to see current wind gust speed)